createdAt,value
2023-04-09T00:04:01.062Z,24.88
2023-04-09T00:55:35.216Z,12.82
2023-04-09T02:04:35.243Z,13.85
2023-04-09T02:09:42.269Z,11.57
2023-04-09T02:49:39.032Z,18.17
2023-04-09T02:54:43.641Z,14.07
2023-04-09T02:59:48.130Z,15.43
2023-04-09T03:04:54.371Z,14.65
2023-04-09T03:50:15.073Z,29.05
2023-04-09T05:11:35.267Z,27.77
2023-04-09T05:40:19.608Z,23.55
2023-04-09T05:51:12.433Z,28.63
2023-04-09T06:08:39.820Z,22.90
2023-04-09T06:19:29.997Z,22.05
2023-04-09T06:24:35.403Z,18.27
2023-04-09T06:29:39.429Z,22.88
2023-04-09T06:52:14.757Z,22.25
2023-04-09T06:57:18.771Z,24.38
2023-04-09T07:02:23.171Z,19.80
2023-04-09T07:07:30.164Z,24.55
2023-04-09T07:12:36.847Z,29.38
2023-04-09T07:17:40.948Z,36.63
2023-04-09T07:22:46.694Z,36.10
2023-04-09T07:27:50.978Z,25.35
2023-04-09T07:38:42.670Z,19.90
2023-04-09T07:43:46.954Z,30.08
2023-04-09T07:49:02.711Z,25.98
2023-04-09T07:59:37.704Z,29.58
2023-04-09T08:04:42.876Z,23.17
2023-04-09T08:21:29.237Z,28.42
2023-04-09T08:26:34.020Z,24.52
2023-04-09T08:31:38.410Z,31.33
2023-04-09T08:36:50.570Z,31.27
2023-04-09T08:41:59.315Z,20.77
2023-04-09T08:47:04.424Z,17.53
2023-04-09T08:52:10.492Z,6.40
2023-04-09T08:57:14.652Z,6.10
2023-04-09T09:02:21.324Z,7.50
2023-04-09T09:07:29.753Z,7.40
2023-04-09T09:12:39.601Z,8.10
2023-04-09T09:17:56.030Z,6.93
2023-04-09T09:23:01.620Z,9.73
2023-04-09T09:28:11.139Z,6.68
2023-04-09T09:33:15.234Z,6.15
2023-04-09T09:38:21.459Z,6.57
2023-04-09T09:43:26.593Z,6.47
2023-04-09T09:48:32.278Z,8.13
2023-04-09T09:53:39.142Z,6.95
2023-04-09T09:58:47.074Z,8.32
2023-04-09T10:03:53.227Z,11.90
2023-04-09T10:09:03.544Z,11.77
2023-04-09T10:14:07.821Z,6.05
2023-04-09T10:19:14.376Z,6.53
2023-04-09T10:24:21.618Z,7.35
2023-04-09T10:29:30.119Z,7.50
2023-04-09T10:34:37.064Z,7.97
2023-04-09T10:39:47.390Z,8.10
2023-04-09T10:45:07.466Z,5.15
2023-04-09T10:50:22.464Z,12.40
2023-04-09T10:55:36.272Z,8.77
2023-04-09T11:00:41.582Z,7.15
2023-04-09T11:05:49.657Z,11.98
2023-04-09T11:10:58.676Z,7.05
2023-04-09T11:16:04.394Z,7.40
2023-04-09T11:21:10.239Z,9.70
2023-04-09T11:26:16.688Z,5.97
2023-04-09T11:31:20.845Z,8.68
2023-04-09T11:36:25.083Z,8.55
2023-04-09T11:41:38.358Z,7.20
2023-04-09T11:46:44.442Z,6.78
2023-04-09T11:51:49.418Z,9.93
2023-04-09T11:56:56.568Z,7.47
2023-04-09T12:02:01.702Z,5.70
2023-04-09T12:07:11.317Z,10.50
2023-04-09T12:12:25.243Z,11.98
2023-04-09T12:17:29.815Z,11.15
2023-04-09T12:22:34.632Z,4.72
2023-04-09T12:27:41.626Z,6.13
2023-04-09T12:32:46.783Z,7.78
2023-04-09T12:37:51.620Z,6.70
2023-04-09T12:42:58.074Z,5.07
2023-04-09T12:48:02.258Z,5.63
2023-04-09T12:53:06.529Z,5.90
2023-04-09T12:58:12.030Z,11.40
2023-04-09T13:03:17.007Z,10.60
2023-04-09T13:08:22.170Z,6.78
2023-04-09T13:19:19.788Z,11.23
2023-04-09T13:24:23.783Z,5.97
2023-04-09T13:29:29.437Z,6.55
2023-04-09T13:34:35.667Z,5.00
2023-04-09T13:39:39.789Z,4.32
2023-04-09T13:44:45.646Z,8.52
2023-04-09T13:49:53.199Z,6.13
2023-04-09T13:54:58.063Z,7.85
2023-04-09T14:00:06.095Z,8.57
2023-04-09T14:05:13.546Z,7.35
2023-04-09T14:10:17.760Z,7.65
2023-04-09T14:15:22.227Z,10.50
2023-04-09T14:20:28.017Z,5.40
2023-04-09T14:25:32.147Z,10.43
2023-04-09T14:30:36.411Z,15.25
2023-04-09T14:35:41.985Z,43.67
2023-04-09T14:40:46.454Z,11.70
2023-04-09T14:45:52.370Z,20.20
2023-04-09T14:50:58.252Z,33.00
2023-04-09T14:56:03.976Z,16.20
2023-04-09T15:01:09.167Z,18.48
2023-04-09T15:06:14.892Z,24.23
2023-04-09T15:11:20.404Z,23.30
2023-04-09T15:16:25.961Z,16.77
2023-04-09T15:21:32.566Z,19.83
2023-04-09T15:26:36.663Z,13.80
2023-04-09T15:31:41.763Z,14.48
2023-04-09T15:36:47.782Z,20.23
2023-04-09T15:41:52.386Z,19.25
2023-04-09T15:46:58.223Z,23.27
2023-04-09T15:52:06.299Z,18.23
2023-04-09T15:57:10.700Z,30.15
2023-04-09T16:02:14.952Z,40.65
2023-04-09T16:07:20.995Z,42.78
2023-04-09T16:12:25.261Z,26.25
2023-04-09T16:17:30.579Z,14.02
2023-04-09T16:22:36.591Z,11.80
2023-04-09T16:27:41.631Z,12.02
2023-04-09T16:32:45.758Z,12.57
2023-04-09T16:37:54.688Z,22.42
2023-04-09T16:42:58.973Z,25.17
2023-04-09T16:48:03.184Z,15.20
2023-04-09T16:53:09.115Z,19.60
2023-04-09T16:58:13.364Z,19.30
2023-04-09T17:03:17.783Z,9.02
2023-04-09T17:08:24.695Z,13.70
2023-04-09T17:13:28.970Z,15.65
2023-04-09T17:18:33.026Z,12.35
2023-04-09T17:46:53.714Z,19.70
2023-04-09T17:52:00.522Z,27.83
2023-04-09T17:57:07.333Z,65.38
2023-04-09T18:02:14.649Z,77.72
2023-04-09T18:07:19.499Z,76.88
2023-04-09T18:12:24.015Z,49.00
2023-04-09T18:17:29.944Z,38.25
2023-04-09T18:22:36.803Z,54.17
2023-04-09T18:27:41.120Z,37.25
2023-04-09T18:38:17.624Z,28.83
2023-04-09T18:43:22.891Z,18.90
2023-04-09T18:48:29.355Z,11.70
2023-04-09T18:53:34.570Z,16.23
2023-04-09T18:58:38.997Z,59.78
2023-04-09T19:03:45.462Z,61.15
2023-04-09T19:08:57.161Z,64.60
2023-04-09T19:14:02.230Z,39.80
2023-04-09T19:19:07.691Z,45.03
2023-04-09T19:24:13.126Z,158.13
2023-04-09T19:29:17.318Z,48.78
2023-04-09T19:34:23.056Z,38.05
2023-04-09T19:39:27.299Z,85.43
2023-04-09T19:44:32.076Z,26.50
2023-04-09T19:49:38.610Z,19.23
2023-04-09T19:54:45.010Z,31.38
2023-04-09T19:59:49.961Z,21.98
2023-04-09T20:04:55.843Z,20.17
2023-04-09T20:09:59.928Z,12.93
2023-04-09T20:15:13.937Z,14.25
2023-04-09T21:01:15.925Z,29.42
2023-04-09T21:06:20.447Z,28.85
2023-04-09T21:22:54.516Z,21.88
2023-04-09T21:28:06.547Z,28.63
2023-04-09T21:33:12.312Z,25.77
2023-04-09T21:38:20.276Z,22.10
2023-04-09T21:44:02.031Z,22.27
2023-04-09T21:49:06.044Z,23.15
2023-04-09T21:54:12.615Z,21.42
2023-04-09T22:10:49.048Z,24.65
2023-04-09T22:15:53.288Z,32.78
2023-04-09T22:20:57.344Z,20.17
2023-04-09T22:26:05.220Z,17.88
2023-04-09T22:31:35.148Z,20.98
2023-04-09T23:16:54.866Z,17.10
2023-04-09T23:21:59.046Z,16.83
2023-04-09T23:27:04.241Z,16.73
2023-04-09T23:32:09.824Z,14.27
2023-04-09T23:37:17.329Z,16.40
2023-04-09T23:48:08.964Z,18.30
2023-04-09T23:53:13.472Z,16.63
2023-04-09T23:58:17.835Z,22.60
